Clynderwen, United Kingdom
Current Conditions -  °F | °C
As of 11:50 PM on Thursday 27 Nov 2014 (Local Time) from EGOP Reporting Station
Broken Clouds Broken Clouds  
Wind Chill: 44°   Ceiling: 6000
Heat Index: 48°   Visibility: 6mi
Dew Point: 45°   Wind: 10mph
Humidity: 87%   Direction: 80°E
Pressure: 29.44"   Gusts: NA
Location:  51.83°N, 4.73°W
Report Text: EGOP 272350Z AUTO 08009KT 9999 // BKN060/// 09/07 Q0997
Loading
Personal Weather Stations






























Interactive Weather Map New forecast layout! Learn more

10-Day Weather Forecast

Advertisements
Track Severe Weather on mobile